sensor_id;sensor_type;location;lat;lon;timestamp;temperature;humidity
32147;DHT22;32190;49.112;8.598;2023-04-25T00:05:35;15.40;51.60
32147;DHT22;32190;49.112;8.598;2023-04-25T00:11:27;15.40;51.60
32147;DHT22;32190;49.112;8.598;2023-04-25T00:17:17;15.40;51.60
32147;DHT22;32190;49.112;8.598;2023-04-25T00:23:09;15.40;51.60
32147;DHT22;32190;49.112;8.598;2023-04-25T00:29:09;15.30;51.60
32147;DHT22;32190;49.112;8.598;2023-04-25T00:35:02;15.30;51.60
32147;DHT22;32190;49.112;8.598;2023-04-25T00:40:53;15.30;51.70
32147;DHT22;32190;49.112;8.598;2023-04-25T00:46:47;15.30;51.70
32147;DHT22;32190;49.112;8.598;2023-04-25T00:52:45;15.30;51.80
32147;DHT22;32190;49.112;8.598;2023-04-25T00:58:45;15.30;51.80
32147;DHT22;32190;49.112;8.598;2023-04-25T01:04:36;15.20;51.70
32147;DHT22;32190;49.112;8.598;2023-04-25T01:10:27;15.20;51.80
32147;DHT22;32190;49.112;8.598;2023-04-25T01:16:17;15.10;51.70
32147;DHT22;32190;49.112;8.598;2023-04-25T01:22:14;15.10;51.70
32147;DHT22;32190;49.112;8.598;2023-04-25T01:28:11;15.00;51.90
32147;DHT22;32190;49.112;8.598;2023-04-25T01:34:02;15.00;51.70
32147;DHT22;32190;49.112;8.598;2023-04-25T01:39:52;15.00;51.70
32147;DHT22;32190;49.112;8.598;2023-04-25T01:45:46;15.00;51.80
32147;DHT22;32190;49.112;8.598;2023-04-25T01:51:37;15.00;51.80
32147;DHT22;32190;49.112;8.598;2023-04-25T01:57:27;14.90;51.70
32147;DHT22;32190;49.112;8.598;2023-04-25T02:03:24;14.90;51.70
32147;DHT22;32190;49.112;8.598;2023-04-25T02:09:15;14.80;51.80
32147;DHT22;32190;49.112;8.598;2023-04-25T02:15:06;14.80;51.80
32147;DHT22;32190;49.112;8.598;2023-04-25T02:21:01;14.80;51.80
32147;DHT22;32190;49.112;8.598;2023-04-25T02:26:51;14.80;51.80
32147;DHT22;32190;49.112;8.598;2023-04-25T02:32:43;14.80;52.00
32147;DHT22;32190;49.112;8.598;2023-04-25T02:38:33;14.70;51.90
32147;DHT22;32190;49.112;8.598;2023-04-25T02:44:24;14.70;52.00
32147;DHT22;32190;49.112;8.598;2023-04-25T02:50:14;14.70;52.00
32147;DHT22;32190;49.112;8.598;2023-04-25T02:56:05;14.70;52.10
32147;DHT22;32190;49.112;8.598;2023-04-25T03:01:55;14.60;52.10
32147;DHT22;32190;49.112;8.598;2023-04-25T03:07:46;14.60;52.10
32147;DHT22;32190;49.112;8.598;2023-04-25T03:13:37;14.60;52.20
32147;DHT22;32190;49.112;8.598;2023-04-25T03:19:27;14.60;52.20
32147;DHT22;32190;49.112;8.598;2023-04-25T03:25:18;14.50;52.30
32147;DHT22;32190;49.112;8.598;2023-04-25T03:31:08;14.50;52.30
32147;DHT22;32190;49.112;8.598;2023-04-25T03:36:59;14.50;52.20
32147;DHT22;32190;49.112;8.598;2023-04-25T03:42:50;14.50;52.30
32147;DHT22;32190;49.112;8.598;2023-04-25T03:48:41;14.40;52.20
32147;DHT22;32190;49.112;8.598;2023-04-25T03:54:31;14.40;52.30
32147;DHT22;32190;49.112;8.598;2023-04-25T04:00:22;14.30;52.40
32147;DHT22;32190;49.112;8.598;2023-04-25T04:06:12;14.30;52.50
32147;DHT22;32190;49.112;8.598;2023-04-25T04:12:04;14.20;52.50
32147;DHT22;32190;49.112;8.598;2023-04-25T04:18:05;14.20;52.60
32147;DHT22;32190;49.112;8.598;2023-04-25T04:23:56;14.10;52.80
32147;DHT22;32190;49.112;8.598;2023-04-25T04:29:48;14.10;52.70
32147;DHT22;32190;49.112;8.598;2023-04-25T05:07:28;14.10;53.10
32147;DHT22;32190;49.112;8.598;2023-04-25T05:13:19;14.10;52.80
32147;DHT22;32190;49.112;8.598;2023-04-25T05:19:10;14.10;53.00
32147;DHT22;32190;49.112;8.598;2023-04-25T05:25:00;14.10;53.10
32147;DHT22;32190;49.112;8.598;2023-04-25T05:30:51;14.10;53.00
32147;DHT22;32190;49.112;8.598;2023-04-25T05:36:42;14.10;53.10
32147;DHT22;32190;49.112;8.598;2023-04-25T05:42:33;14.10;53.20
32147;DHT22;32190;49.112;8.598;2023-04-25T05:48:23;14.10;53.20
32147;DHT22;32190;49.112;8.598;2023-04-25T05:54:14;14.10;53.20
32147;DHT22;32190;49.112;8.598;2023-04-25T06:00:05;14.20;53.30
32147;DHT22;32190;49.112;8.598;2023-04-25T06:05:59;14.20;53.40
32147;DHT22;32190;49.112;8.598;2023-04-25T06:11:49;14.30;53.40
32147;DHT22;32190;49.112;8.598;2023-04-25T06:17:40;14.30;53.30
32147;DHT22;32190;49.112;8.598;2023-04-25T06:23:31;14.30;53.30
32147;DHT22;32190;49.112;8.598;2023-04-25T06:29:22;14.30;53.40
32147;DHT22;32190;49.112;8.598;2023-04-25T06:35:12;14.40;53.50
32147;DHT22;32190;49.112;8.598;2023-04-25T06:41:03;14.40;53.40
32147;DHT22;32190;49.112;8.598;2023-04-25T06:46:54;14.40;53.50
32147;DHT22;32190;49.112;8.598;2023-04-25T06:52:44;14.50;53.40
32147;DHT22;32190;49.112;8.598;2023-04-25T06:58:35;14.50;53.50
32147;DHT22;32190;49.112;8.598;2023-04-25T07:04:26;14.50;53.40
32147;DHT22;32190;49.112;8.598;2023-04-25T07:10:16;14.40;53.60
32147;DHT22;32190;49.112;8.598;2023-04-25T07:16:07;14.40;53.70
32147;DHT22;32190;49.112;8.598;2023-04-25T07:21:57;14.40;53.90
32147;DHT22;32190;49.112;8.598;2023-04-25T07:27:48;14.40;54.00
32147;DHT22;32190;49.112;8.598;2023-04-25T07:33:39;14.30;54.10
32147;DHT22;32190;49.112;8.598;2023-04-25T07:39:29;14.30;54.20
32147;DHT22;32190;49.112;8.598;2023-04-25T07:45:20;14.40;54.20
32147;DHT22;32190;49.112;8.598;2023-04-25T07:51:10;14.40;54.30
32147;DHT22;32190;49.112;8.598;2023-04-25T07:57:01;14.40;54.30
32147;DHT22;32190;49.112;8.598;2023-04-25T08:03:05;14.40;54.40
32147;DHT22;32190;49.112;8.598;2023-04-25T08:08:56;14.40;54.60
32147;DHT22;32190;49.112;8.598;2023-04-25T08:14:47;14.40;54.40
32147;DHT22;32190;49.112;8.598;2023-04-25T08:20:37;14.40;54.30
32147;DHT22;32190;49.112;8.598;2023-04-25T08:26:28;14.40;54.40
32147;DHT22;32190;49.112;8.598;2023-04-25T08:32:19;14.40;54.60
32147;DHT22;32190;49.112;8.598;2023-04-25T08:38:11;14.30;54.80
32147;DHT22;32190;49.112;8.598;2023-04-25T08:44:03;14.20;54.80
32147;DHT22;32190;49.112;8.598;2023-04-25T08:50:00;14.00;54.80
32147;DHT22;32190;49.112;8.598;2023-04-25T08:55:56;13.90;55.10
32147;DHT22;32190;49.112;8.598;2023-04-25T09:01:48;13.80;55.20
32147;DHT22;32190;49.112;8.598;2023-04-25T09:07:39;13.70;55.00
32147;DHT22;32190;49.112;8.598;2023-04-25T09:13:33;13.80;55.20
32147;DHT22;32190;49.112;8.598;2023-04-25T09:19:25;13.80;55.20
32147;DHT22;32190;49.112;8.598;2023-04-25T09:25:16;13.80;55.30
32147;DHT22;32190;49.112;8.598;2023-04-25T09:43:57;13.70;56.00
32147;DHT22;32190;49.112;8.598;2023-04-25T09:49:48;13.80;55.60
32147;DHT22;32190;49.112;8.598;2023-04-25T09:55:40;13.80;55.40
32147;DHT22;32190;49.112;8.598;2023-04-25T10:01:32;13.80;55.90
32147;DHT22;32190;49.112;8.598;2023-04-25T10:07:25;13.80;55.90
32147;DHT22;32190;49.112;8.598;2023-04-25T10:13:18;13.80;55.90
32147;DHT22;32190;49.112;8.598;2023-04-25T10:19:10;13.80;56.00
32147;DHT22;32190;49.112;8.598;2023-04-25T10:25:02;13.90;56.00
32147;DHT22;32190;49.112;8.598;2023-04-25T10:31:04;13.90;55.90
32147;DHT22;32190;49.112;8.598;2023-04-25T10:36:55;13.90;56.20
32147;DHT22;32190;49.112;8.598;2023-04-25T10:42:46;14.00;55.90
32147;DHT22;32190;49.112;8.598;2023-04-25T10:48:36;14.00;55.80
32147;DHT22;32190;49.112;8.598;2023-04-25T10:54:27;14.20;56.20
32147;DHT22;32190;49.112;8.598;2023-04-25T11:00:19;14.30;56.00
32147;DHT22;32190;49.112;8.598;2023-04-25T11:06:41;14.40;55.90
32147;DHT22;32190;49.112;8.598;2023-04-25T11:12:37;14.50;55.90
32147;DHT22;32190;49.112;8.598;2023-04-25T11:18:27;14.60;55.60
32147;DHT22;32190;49.112;8.598;2023-04-25T11:24:18;14.70;56.00
32147;DHT22;32190;49.112;8.598;2023-04-25T11:30:15;14.70;56.10
32147;DHT22;32190;49.112;8.598;2023-04-25T11:36:06;14.80;56.20
32147;DHT22;32190;49.112;8.598;2023-04-25T11:41:57;14.90;55.80
32147;DHT22;32190;49.112;8.598;2023-04-25T11:47:49;15.00;55.80
32147;DHT22;32190;49.112;8.598;2023-04-25T11:53:44;14.90;55.70
32147;DHT22;32190;49.112;8.598;2023-04-25T11:59:35;14.80;55.80
32147;DHT22;32190;49.112;8.598;2023-04-25T12:05:28;14.90;56.10
32147;DHT22;32190;49.112;8.598;2023-04-25T12:11:22;14.90;56.00
32147;DHT22;32190;49.112;8.598;2023-04-25T12:17:12;15.00;56.40
32147;DHT22;32190;49.112;8.598;2023-04-25T12:23:06;15.00;56.00
32147;DHT22;32190;49.112;8.598;2023-04-25T12:28:58;15.10;56.20
32147;DHT22;32190;49.112;8.598;2023-04-25T12:34:51;15.20;56.00
32147;DHT22;32190;49.112;8.598;2023-04-25T12:40:42;15.30;56.00
32147;DHT22;32190;49.112;8.598;2023-04-25T12:46:32;15.40;55.80
32147;DHT22;32190;49.112;8.598;2023-04-25T12:52:23;15.50;55.70
32147;DHT22;32190;49.112;8.598;2023-04-25T12:58:24;15.60;55.50
32147;DHT22;32190;49.112;8.598;2023-04-25T13:04:15;15.60;55.30
32147;DHT22;32190;49.112;8.598;2023-04-25T13:16:16;15.50;55.30
32147;DHT22;32190;49.112;8.598;2023-04-25T13:22:06;15.50;55.40
32147;DHT22;32190;49.112;8.598;2023-04-25T13:28:01;15.50;55.40
32147;DHT22;32190;49.112;8.598;2023-04-25T13:33:55;15.50;55.30
32147;DHT22;32190;49.112;8.598;2023-04-25T13:39:46;15.60;55.50
32147;DHT22;32190;49.112;8.598;2023-04-25T13:45:39;15.70;55.30
32147;DHT22;32190;49.112;8.598;2023-04-25T13:51:30;15.80;55.20
32147;DHT22;32190;49.112;8.598;2023-04-25T13:57:27;15.90;55.20
32147;DHT22;32190;49.112;8.598;2023-04-25T14:03:27;16.10;54.90
32147;DHT22;32190;49.112;8.598;2023-04-25T14:09:19;16.20;54.70
32147;DHT22;32190;49.112;8.598;2023-04-25T14:15:11;16.30;54.30
32147;DHT22;32190;49.112;8.598;2023-04-25T14:21:04;16.40;54.20
32147;DHT22;32190;49.112;8.598;2023-04-25T14:26:55;16.40;53.90
32147;DHT22;32190;49.112;8.598;2023-04-25T14:32:56;16.40;54.00
32147;DHT22;32190;49.112;8.598;2023-04-25T14:38:47;16.50;53.50
32147;DHT22;32190;49.112;8.598;2023-04-25T14:44:38;16.50;53.40
32147;DHT22;32190;49.112;8.598;2023-04-25T14:50:28;16.50;53.20
32147;DHT22;32190;49.112;8.598;2023-04-25T14:56:19;16.40;53.30
32147;DHT22;32190;49.112;8.598;2023-04-25T15:02:10;16.40;53.50
32147;DHT22;32190;49.112;8.598;2023-04-25T15:08:07;16.50;53.30
32147;DHT22;32190;49.112;8.598;2023-04-25T15:13:58;16.50;53.40
32147;DHT22;32190;49.112;8.598;2023-04-25T15:20:04;16.50;53.40
32147;DHT22;32190;49.112;8.598;2023-04-25T15:26:13;16.50;53.40
32147;DHT22;32190;49.112;8.598;2023-04-25T15:32:15;16.60;53.40
32147;DHT22;32190;49.112;8.598;2023-04-25T15:38:22;16.60;52.70
32147;DHT22;32190;49.112;8.598;2023-04-25T15:44:19;16.50;50.30
32147;DHT22;32190;49.112;8.598;2023-04-25T15:50:11;16.40;51.00
32147;DHT22;32190;49.112;8.598;2023-04-25T15:56:02;16.10;50.90
32147;DHT22;32190;49.112;8.598;2023-04-25T16:01:53;16.00;51.10
32147;DHT22;32190;49.112;8.598;2023-04-25T16:07:45;15.90;52.10
32147;DHT22;32190;49.112;8.598;2023-04-25T16:13:36;16.00;52.70
32147;DHT22;32190;49.112;8.598;2023-04-25T16:19:26;16.20;52.90
32147;DHT22;32190;49.112;8.598;2023-04-25T16:25:17;16.40;52.90
32147;DHT22;32190;49.112;8.598;2023-04-25T16:31:07;16.50;52.80
32147;DHT22;32190;49.112;8.598;2023-04-25T16:36:58;16.60;52.70
32147;DHT22;32190;49.112;8.598;2023-04-25T16:42:49;16.70;52.70
32147;DHT22;32190;49.112;8.598;2023-04-25T16:48:39;16.70;52.70
32147;DHT22;32190;49.112;8.598;2023-04-25T16:54:30;16.70;52.60
32147;DHT22;32190;49.112;8.598;2023-04-25T17:00:20;16.80;52.50
32147;DHT22;32190;49.112;8.598;2023-04-25T17:06:11;16.80;52.60
32147;DHT22;32190;49.112;8.598;2023-04-25T17:12:04;16.70;52.40
32147;DHT22;32190;49.112;8.598;2023-04-25T17:17:56;16.70;52.50
32147;DHT22;32190;49.112;8.598;2023-04-25T17:23:49;16.70;52.60
32147;DHT22;32190;49.112;8.598;2023-04-25T17:29:40;16.70;52.60
32147;DHT22;32190;49.112;8.598;2023-04-25T17:35:30;16.60;52.50
32147;DHT22;32190;49.112;8.598;2023-04-25T17:41:23;16.50;52.20
32147;DHT22;32190;49.112;8.598;2023-04-25T17:47:13;16.20;52.40
32147;DHT22;32190;49.112;8.598;2023-04-25T17:53:04;15.90;52.70
32147;DHT22;32190;49.112;8.598;2023-04-25T17:58:55;15.60;52.80
32147;DHT22;32190;49.112;8.598;2023-04-25T18:04:45;15.40;53.60
32147;DHT22;32190;49.112;8.598;2023-04-25T18:10:36;15.30;54.60
32147;DHT22;32190;49.112;8.598;2023-04-25T18:16:28;15.50;54.20
32147;DHT22;32190;49.112;8.598;2023-04-25T18:22:18;15.60;54.10
32147;DHT22;32190;49.112;8.598;2023-04-25T18:28:09;15.70;53.70
32147;DHT22;32190;49.112;8.598;2023-04-25T18:34:01;15.50;53.40
32147;DHT22;32190;49.112;8.598;2023-04-25T18:39:51;15.40;53.90
32147;DHT22;32190;49.112;8.598;2023-04-25T18:45:42;15.40;53.90
32147;DHT22;32190;49.112;8.598;2023-04-25T18:51:32;15.40;54.10
32147;DHT22;32190;49.112;8.598;2023-04-25T18:57:23;15.40;54.10
32147;DHT22;32190;49.112;8.598;2023-04-25T19:03:13;15.50;53.80
32147;DHT22;32190;49.112;8.598;2023-04-25T19:09:04;15.40;53.90
32147;DHT22;32190;49.112;8.598;2023-04-25T19:14:55;15.40;53.70
32147;DHT22;32190;49.112;8.598;2023-04-25T19:20:45;15.40;54.00
32147;DHT22;32190;49.112;8.598;2023-04-25T19:26:36;15.40;53.80
32147;DHT22;32190;49.112;8.598;2023-04-25T19:32:27;15.40;53.90
32147;DHT22;32190;49.112;8.598;2023-04-25T19:38:18;15.40;53.70
32147;DHT22;32190;49.112;8.598;2023-04-25T19:44:08;15.30;53.90
32147;DHT22;32190;49.112;8.598;2023-04-25T19:49:59;15.20;54.20
32147;DHT22;32190;49.112;8.598;2023-04-25T19:55:50;15.20;54.00
32147;DHT22;32190;49.112;8.598;2023-04-25T20:01:41;15.20;54.00
32147;DHT22;32190;49.112;8.598;2023-04-25T20:07:31;15.20;54.00
32147;DHT22;32190;49.112;8.598;2023-04-25T20:13:22;15.10;54.00
32147;DHT22;32190;49.112;8.598;2023-04-25T20:19:12;15.10;53.90
32147;DHT22;32190;49.112;8.598;2023-04-25T20:25:08;15.10;54.00
32147;DHT22;32190;49.112;8.598;2023-04-25T20:30:59;15.00;53.80
32147;DHT22;32190;49.112;8.598;2023-04-25T20:36:50;14.90;53.80
32147;DHT22;32190;49.112;8.598;2023-04-25T20:42:42;14.80;54.20
32147;DHT22;32190;49.112;8.598;2023-04-25T20:48:32;14.80;54.40
32147;DHT22;32190;49.112;8.598;2023-04-25T20:54:23;14.80;54.20
32147;DHT22;32190;49.112;8.598;2023-04-25T21:00:16;14.80;54.60
32147;DHT22;32190;49.112;8.598;2023-04-25T21:06:18;14.60;53.90
32147;DHT22;32190;49.112;8.598;2023-04-25T21:12:09;14.50;54.40
32147;DHT22;32190;49.112;8.598;2023-04-25T21:17:59;14.40;54.60
32147;DHT22;32190;49.112;8.598;2023-04-25T21:23:51;14.40;54.70
32147;DHT22;32190;49.112;8.598;2023-04-25T21:29:42;14.40;54.70
32147;DHT22;32190;49.112;8.598;2023-04-25T21:35:33;14.40;54.70
32147;DHT22;32190;49.112;8.598;2023-04-25T21:41:24;14.40;54.80
32147;DHT22;32190;49.112;8.598;2023-04-25T21:47:15;14.40;54.80
32147;DHT22;32190;49.112;8.598;2023-04-25T21:53:06;14.40;54.80
32147;DHT22;32190;49.112;8.598;2023-04-25T21:58:57;14.40;54.80
32147;DHT22;32190;49.112;8.598;2023-04-25T22:04:50;14.40;54.70
32147;DHT22;32190;49.112;8.598;2023-04-25T22:10:41;14.30;54.90
32147;DHT22;32190;49.112;8.598;2023-04-25T22:16:32;14.20;55.20
32147;DHT22;32190;49.112;8.598;2023-04-25T22:22:23;14.20;55.20
32147;DHT22;32190;49.112;8.598;2023-04-25T22:28:13;14.20;55.00
32147;DHT22;32190;49.112;8.598;2023-04-25T22:34:04;14.30;55.00
32147;DHT22;32190;49.112;8.598;2023-04-25T22:39:58;14.20;54.90
32147;DHT22;32190;49.112;8.598;2023-04-25T22:45:48;14.20;54.60
32147;DHT22;32190;49.112;8.598;2023-04-25T22:51:39;14.10;54.80
32147;DHT22;32190;49.112;8.598;2023-04-25T22:57:30;14.10;54.80
32147;DHT22;32190;49.112;8.598;2023-04-25T23:03:20;14.10;54.70
32147;DHT22;32190;49.112;8.598;2023-04-25T23:09:11;14.00;54.70
32147;DHT22;32190;49.112;8.598;2023-04-25T23:15:03;14.00;54.60
32147;DHT22;32190;49.112;8.598;2023-04-25T23:20:54;13.90;54.60
32147;DHT22;32190;49.112;8.598;2023-04-25T23:26:45;13.80;54.80
32147;DHT22;32190;49.112;8.598;2023-04-25T23:32:36;13.80;54.60
32147;DHT22;32190;49.112;8.598;2023-04-25T23:38:27;13.80;54.80
32147;DHT22;32190;49.112;8.598;2023-04-25T23:44:18;13.80;54.70
32147;DHT22;32190;49.112;8.598;2023-04-25T23:50:09;13.80;54.50
32147;DHT22;32190;49.112;8.598;2023-04-25T23:55:59;13.70;54.40
